Buoy 17652

sailwx.info

Track history (hours):
 
Tides and Currents Weather Stations Pressure Air Temp Water Temp Dewpoint Dewpoint Depression Visibility Wind Speed Wind Dir Waves Ship Positions

Drifting buoy 17652

Last reported at 2017-May-26 21:00 UTC. Time now 2017-May-26 22:37 UTC.
Position S 36°26' E 063°09'.

Barometer 1021.6 mb
Water temperature 16.8 ° C

Date/timePositionNaut miles runAvg speedWind from/ knotsBaromVisibWave heightAir tempDewpointWater temp
2017-May-26 21:00S 36°26' E 063°09'0 0.0 1021.6 16.8
2017-May-26 19:00S 36°26' E 063°09'1 1.1 1021.5 16.7
2017-May-26 18:00S 36°25' E 063°10'1 0.8 1021.8 16.7
2017-May-26 17:00S 36°26' E 063°10'0 0.5 1021.5 16.7
2017-May-26 16:00S 36°26' E 063°09'1 0.6 1021.2 16.7
2017-May-26 15:00S 36°25' E 063°09'0 0.0
2017-May-26 14:00S 36°25' E 063°09'2 0.5
2017-May-26 10:00S 36°27' E 063°10'2 1.9 1017.6 16.8
2017-May-26 09:00S 36°25' E 063°10'2 0.6 1017.2 16.8
2017-May-26 06:00S 36°27' E 063°10'0 0.0 1015.7 16.8
2017-May-26 05:00S 36°27' E 063°10'2 1.9 1014.4 16.7
2017-May-26 04:00S 36°29' E 063°11'1 1.1 1012.9 16.7
2017-May-26 03:00S 36°29' E 063°10'0 0.0 1011.5 16.7
2017-May-26 02:00S 36°29' E 063°10'3 2.6 1010.1 16.7
2017-May-26 01:00S 36°32' E 063°08'0 0.0 1008.8 16.7
2017-May-25 23:00S 36°32' E 063°08'2 1.9 1007.1 16.8
2017-May-25 22:00S 36°33' E 063°07'0 0.0 1006.4 16.8
2017-May-25 21:00S 36°33' E 063°07'0 0.0 1005.1 16.8
2017-May-25 18:00S 36°33' E 063°07'1 1.4 1005.2 16.8
2017-May-25 17:00S 36°33' E 063°05'0 0.0 1003.9 16.9
2017-May-25 16:00S 36°33' E 063°05'1 0.8 1004.1 16.9
2017-May-25 15:00S 36°32' E 063°04'1 0.3 1004.3 16.9
2017-May-25 13:00S 36°32' E 063°04'1 0.6 1004.6 16.9
2017-May-25 12:00S 36°31' E 063°04'2 1.0 1004.8 16.9
2017-May-25 10:00S 36°29' E 063°03'1 0.2 1005.7 16.9
2017-May-25 05:00S 36°29' E 063°04'2 1.6 1010.2 16.9
2017-May-25 04:00S 36°29' E 063°02'2 0.8 1010.4 16.9
2017-May-25 02:00S 36°28' E 063°01'1 0.6 1010.5 16.9
2017-May-25 01:00S 36°27' E 063°01'1 1.3 1010.8 16.9
2017-May-25 00:00S 36°26' E 063°01'0 0.0 1011.1 16.9
2017-May-24 23:00S 36°26' E 063°01'1 0.8 1011.5 16.9
2017-May-24 22:00S 36°25' E 063°00'0 0.0 1011.8 16.9
2017-May-24 21:00S 36°25' E 063°00'1 0.6 1012.6 16.9
2017-May-24 19:00S 36°24' E 063°00'0 0.5 1012.8 16.9
2017-May-24 18:00S 36°24' E 062°59'1 0.8 1013.6 16.9
2017-May-24 17:00S 36°23' E 062°59'0 0.5 1013.5 16.9
2017-May-24 16:00S 36°23' E 062°59'1 0.8 1013.8 16.9
2017-May-24 15:00S 36°23' E 062°59'0 0.0 1014.0 16.8
2017-May-24 14:00S 36°23' E 062°59'0 0.0 1013.6 16.8
2017-May-24 12:00S 36°23' E 062°59'0 0.5 1013.3 16.8
2017-May-24 11:00S 36°23' E 062°59'1 0.2 1014.4 16.8
2017-May-24 06:00S 36°22' E 062°59'1 0.6 1018.7 16.8
2017-May-24 05:00S 36°21' E 062°59'0 0.0 1018.7 16.8
2017-May-24 04:00S 36°21' E 062°59'0 0.0 1018.9 16.8
2017-May-24 03:00S 36°21' E 062°59'1 1.0 1019.2 16.8
2017-May-24 02:00S 36°21' E 063°01'1 0.2 1018.7 16.8
2017-May-23 22:00S 36°20' E 063°01'0 0.0 1019.0 16.8
2017-May-23 21:00S 36°20' E 063°01'2 0.7 1018.9 16.8
2017-May-23 18:00S 36°21' E 063°04'1 1.1 1018.0 16.8
2017-May-23 17:00S 36°22' E 063°05'0 0.5 1017.5 16.8
2017-May-23 16:00S 36°22' E 063°05'2 1.9 1016.7 16.8
2017-May-23 15:00S 36°23' E 063°06'0 0.0 1016.2 16.8
2017-May-23 14:00S 36°23' E 063°06'0 0.5 1015.2 16.9
2017-May-23 13:00S 36°23' E 063°05'2 1.9 1014.0 16.9
2017-May-23 12:00S 36°25' E 063°05'0 0.0 1013.4 16.9
2017-May-23 10:00S 36°25' E 063°05'2 0.5 1011.4 16.9
2017-May-23 06:00S 36°26' E 063°02'1 0.8 1012.7 16.9
2017-May-23 05:00S 36°25' E 063°02'0 0.0 1013.0 16.8
2017-May-23 04:00S 36°25' E 063°02'0 0.0 1013.1 16.8
2017-May-23 03:00S 36°25' E 063°02'0 0.5 1013.3 16.8
2017-May-23 02:00S 36°25' E 063°02'0 0.5 1013.0 16.7
2017-May-23 01:00S 36°25' E 063°02'0 0.5 1012.9 16.7
2017-May-23 00:00S 36°25' E 063°02'0 0.0 1013.1 16.7
2017-May-22 22:00S 36°25' E 063°02'1 0.6 1014.1 16.6
2017-May-22 21:00S 36°26' E 063°02'0 0.0 1014.5 16.7
2017-May-22 20:00S 36°26' E 063°02'1 0.8 1015.1 16.7
2017-May-22 19:00S 36°25' E 063°03'0 0.0 1015.4 16.7
2017-May-22 18:00S 36°25' E 063°03'0 0.0 1015.8 16.7
2017-May-22 16:00S 36°25' E 063°03'1 0.3 1015.9 16.7
2017-May-22 13:00S 36°25' E 063°04'0 0.0 1015.8 16.8
2017-May-22 12:00S 36°25' E 063°04'0 0.0 1015.7 16.9
2017-May-22 11:00S 36°25' E 063°04'0 0.5 1015.5 16.9
2017-May-22 10:00S 36°25' E 063°03'4 0.9 1015.8 16.9
2017-May-22 05:00S 36°23' E 063°08'2 2.3 1016.2 16.9
2017-May-22 04:00S 36°24' E 063°10'1 0.8 1015.5 16.9
2017-May-22 03:00S 36°23' E 063°10'2 1.5 1015.3 16.9
2017-May-22 02:00S 36°25' E 063°11'1 1.0 1015.1 16.9
2017-May-22 01:00S 36°25' E 063°12'1 0.6 1014.8 16.9
2017-May-21 23:00S 36°26' E 063°12'1 0.8 1014.1 16.9
2017-May-21 22:00S 36°26' E 063°13'0 0.0 1013.8 16.9
2017-May-21 21:00S 36°26' E 063°13'1 0.3 1014.0 16.9
2017-May-21 19:00S 36°27' E 063°13'0 0.0 1013.6 16.9
2017-May-21 18:00S 36°27' E 063°13'0 0.0 1013.7 16.8
2017-May-21 17:00S 36°27' E 063°13'1 0.6 1013.7 16.8
2017-May-21 16:00S 36°28' E 063°13'1 0.8 1013.5 16.8
2017-May-21 15:00S 36°27' E 063°13'0 0.0 1013.1 16.8
2017-May-21 14:00S 36°27' E 063°13'1 0.8 1012.6 16.7
2017-May-21 13:00S 36°28' E 063°14'2 1.6 1012.5 16.7
2017-May-21 12:00S 36°28' E 063°12'4 3.8 1011.6 16.7
2017-May-21 11:00S 36°30' E 063°16'3 3.4 1010.6 16.7
2017-May-21 10:00S 36°28' E 063°13'4 1.0 1010.6 16.7
2017-May-21 06:00S 36°30' E 063°17'0 0.0 1011.5 16.7
2017-May-21 05:00S 36°30' E 063°17'1 0.6 1011.3 16.6
2017-May-21 04:00S 36°31' E 063°17'1 1.1 1011.1 16.6
2017-May-21 03:00S 36°31' E 063°16'1 0.8 1010.8 16.5
2017-May-21 02:00S 36°32' E 063°16'1 1.0 1010.6 16.5
2017-May-21 01:00S 36°32' E 063°15'1 0.4 1010.7 16.5
2017-May-20 23:00S 36°32' E 063°16'0 0.0 1011.6 16.5
2017-May-20 22:00S 36°32' E 063°16'0 0.2 1012.0 16.5
2017-May-20 20:00S 36°32' E 063°15'1 0.4 1013.0 16.4
2017-May-20 18:00S 36°33' E 063°16'1 0.8 1014.1 16.5
2017-May-20 17:00S 36°34' E 063°16'1 0.8 1014.1 16.5
2017-May-20 16:00S 36°33' E 063°17'1 1.3 1014.1 16.6
2017-May-20 15:00S 36°34' E 063°17'0 0.0 1014.4 16.7
2017-May-20 14:00S 36°34' E 063°17'2 1.6 1014.4 16.6
2017-May-20 13:00S 36°35' E 063°19'0 0.0 1014.5 16.6
2017-May-20 12:00S 36°35' E 063°19'2 1.5 1014.5 16.6
2017-May-20 11:00S 36°36' E 063°20'0 0.0 1014.0 16.7
2017-May-20 10:00S 36°36' E 063°20'3 0.6 1014.1 16.7
2017-May-20 05:00S 36°38' E 063°23'2 1.9 1013.5 16.6
2017-May-20 04:00S 36°40' E 063°25'0 0.0 1013.4 16.5
2017-May-20 03:00S 36°40' E 063°25'1 0.8 1013.1 16.5
2017-May-20 02:00S 36°40' E 063°25'0 0.0 1013.2 16.5
2017-May-20 01:00S 36°40' E 063°25'0 0.0 1013.1 16.5
2017-May-20 00:00S 36°40' E 063°25'0 0.0 1012.8 16.5
2017-May-19 23:00S 36°40' E 063°25'0 0.5 1013.4 16.5
2017-May-19 22:00S 36°40' E 063°26'0 0.2 1013.9 16.5
2017-May-19 19:00S 36°40' E 063°26'0 0.0 1015.6 16.4
2017-May-19 18:00S 36°40' E 063°26'1 1.4 1016.4 16.5
2017-May-19 17:00S 36°40' E 063°28'0 0.2 1016.8 16.5
2017-May-19 15:00S 36°40' E 063°29'0 0.0 1017.7 16.5
2017-May-19 14:00S 36°40' E 063°29'0 0.5 1017.8 16.5
2017-May-19 13:00S 36°40' E 063°29'1 0.8 1018.3 16.4
2017-May-19 12:00S 36°41' E 063°30'1 0.8 1019.0 16.5
2017-May-19 11:00S 36°41' E 063°29'0 0.0 1019.1 16.5
2017-May-19 10:00S 36°41' E 063°29'0 0.0 1019.3 16.6
2017-May-19 09:00S 36°41' E 063°29'0 0.0 1020.1 16.6
2017-May-19 06:00S 36°41' E 063°29'0 0.0 1022.7 16.5
2017-May-19 05:00S 36°41' E 063°29'1 1.0 1023.1 16.4
2017-May-19 04:00S 36°41' E 063°31'0 0.0 1022.9 16.4
2017-May-19 03:00S 36°41' E 063°31'1 1.1 1023.1 16.4
2017-May-19 02:00S 36°41' E 063°32'0 0.0 1023.2 16.4
2017-May-19 00:00S 36°41' E 063°32'1 0.6 1023.2 16.3
2017-May-18 23:00S 36°41' E 063°32'1 0.8 1023.7 16.4
2017-May-18 22:00S 36°41' E 063°32'1 1.4 1024.2 16.4
2017-May-18 21:00S 36°41' E 063°34'1 0.4 1024.6 16.4
2017-May-18 18:00S 36°41' E 063°35'0 0.0 1025.6 16.3
2017-May-18 17:00S 36°41' E 063°35'0 0.5 1025.8 16.3
2017-May-18 16:00S 36°41' E 063°36'1 1.1 1025.8 16.3
2017-May-18 15:00S 36°42' E 063°37'1 0.6 1025.7 16.3
2017-May-18 14:00S 36°41' E 063°37'3 1.3 1025.6 16.3
2017-May-18 12:00S 36°44' E 063°38'0 0.0 1025.3 16.4
2017-May-18 11:00S 36°44' E 063°38'0 0.0 1025.0 16.4
2017-May-18 10:00S 36°44' E 063°38'1 0.8 1025.0 16.4
2017-May-18 09:00S 36°44' E 063°38'0 0.0 1025.1 16.4
2017-May-18 05:00S 36°44' E 063°38'0 0.0 1025.5 16.4
2017-May-18 04:00S 36°44' E 063°38'1 0.8 1025.2 16.4
2017-May-18 03:00S 36°45' E 063°38'0 0.5 1024.8 16.4
2017-May-18 02:00S 36°45' E 063°39'1 1.3 1024.7 16.4
2017-May-18 01:00S 36°46' E 063°40'1 0.3 1024.3 16.4
2017-May-17 23:00S 36°46' E 063°40'1 0.8 1024.5 16.4
2017-May-17 22:00S 36°46' E 063°40'1 1.3 1024.5 16.4
2017-May-17 21:00S 36°47' E 063°41'0 0.0 1024.5 16.4
2017-May-17 19:00S 36°47' E 063°41'1 1.3 1024.7 16.4
2017-May-17 18:00S 36°49' E 063°41'1 0.8 1024.7 16.4
2017-May-17 17:00S 36°49' E 063°42'1 1.1 1024.4 16.4
2017-May-17 16:00S 36°50' E 063°43'1 0.6 1024.0 16.4
2017-May-17 15:00S 36°50' E 063°43'1 1.3 1023.8 16.4
2017-May-17 14:00S 36°52' E 063°44'0 0.0 1023.7 16.4
2017-May-17 13:00S 36°52' E 063°44'1 1.2 1023.3 16.4
2017-May-17 12:00S 36°53' E 063°44'0 0.0 1023.1 16.5
2017-May-17 11:00S 36°53' E 063°44'3 2.6 1022.9 16.5
2017-May-17 10:00S 36°55' E 063°45'0 0.0 1022.9 16.5
2017-May-17 06:00S 36°55' E 063°45'1 1.0 1024.2 16.6
2017-May-17 05:00S 36°55' E 063°46'1 0.6 1024.1 16.5
2017-May-17 04:00S 36°56' E 063°46'1 0.6 1024.1 16.5
2017-May-17 03:00S 36°56' E 063°46'0 0.0 1023.5 16.5
2017-May-17 02:00S 36°56' E 063°46'1 1.3 1023.1 16.5
2017-May-17 01:00S 36°58' E 063°47'2 0.9 1022.9 16.5
2017-May-16 23:00S 36°59' E 063°46'1 0.8 1023.2 16.5
2017-May-16 22:00S 37°00' E 063°47'0 0.0 1023.3 16.5
2017-May-16 21:00S 37°00' E 063°47'   1023.5 16.6
Track history (hours):
 
Tides and Currents Weather Stations Pressure Air Temp Water Temp Dewpoint Dewpoint Depression Visibility Wind Speed Wind Dir Waves Ship Positions

Drifting buoy 17652

Last reported at 2017-May-26 21:00 UTC. Time now 2017-May-26 22:37 UTC.
Position S 36°26' E 063°09'.

Barometer 1021.6 mb
Water temperature 16.8 ° C

Date/timePositionNaut miles runAvg speedWind from/ knotsBaromVisibWave heightAir tempDewpointWater temp
2017-May-26 21:00S 36°26' E 063°09'0 0.0 1021.6 16.8
2017-May-26 19:00S 36°26' E 063°09'1 1.1 1021.5 16.7
2017-May-26 18:00S 36°25' E 063°10'1 0.8 1021.8 16.7
2017-May-26 17:00S 36°26' E 063°10'0 0.5 1021.5 16.7
2017-May-26 16:00S 36°26' E 063°09'1 0.6 1021.2 16.7
2017-May-26 15:00S 36°25' E 063°09'0 0.0
2017-May-26 14:00S 36°25' E 063°09'2 0.5
2017-May-26 10:00S 36°27' E 063°10'2 1.9 1017.6 16.8
2017-May-26 09:00S 36°25' E 063°10'2 0.6 1017.2 16.8
2017-May-26 06:00S 36°27' E 063°10'0 0.0 1015.7 16.8
2017-May-26 05:00S 36°27' E 063°10'2 1.9 1014.4 16.7
2017-May-26 04:00S 36°29' E 063°11'1 1.1 1012.9 16.7
2017-May-26 03:00S 36°29' E 063°10'0 0.0 1011.5 16.7
2017-May-26 02:00S 36°29' E 063°10'3 2.6 1010.1 16.7
2017-May-26 01:00S 36°32' E 063°08'0 0.0 1008.8 16.7
2017-May-25 23:00S 36°32' E 063°08'2 1.9 1007.1 16.8
2017-May-25 22:00S 36°33' E 063°07'0 0.0 1006.4 16.8
2017-May-25 21:00S 36°33' E 063°07'0 0.0 1005.1 16.8
2017-May-25 18:00S 36°33' E 063°07'1 1.4 1005.2 16.8
2017-May-25 17:00S 36°33' E 063°05'0 0.0 1003.9 16.9
2017-May-25 16:00S 36°33' E 063°05'1 0.8 1004.1 16.9
2017-May-25 15:00S 36°32' E 063°04'1 0.3 1004.3 16.9
2017-May-25 13:00S 36°32' E 063°04'1 0.6 1004.6 16.9
2017-May-25 12:00S 36°31' E 063°04'2 1.0 1004.8 16.9
2017-May-25 10:00S 36°29' E 063°03'1 0.2 1005.7 16.9
2017-May-25 05:00S 36°29' E 063°04'2 1.6 1010.2 16.9
2017-May-25 04:00S 36°29' E 063°02'2 0.8 1010.4 16.9
2017-May-25 02:00S 36°28' E 063°01'1 0.6 1010.5 16.9
2017-May-25 01:00S 36°27' E 063°01'1 1.3 1010.8 16.9
2017-May-25 00:00S 36°26' E 063°01'0 0.0 1011.1 16.9
2017-May-24 23:00S 36°26' E 063°01'1 0.8 1011.5 16.9
2017-May-24 22:00S 36°25' E 063°00'0 0.0 1011.8 16.9
2017-May-24 21:00S 36°25' E 063°00'1 0.6 1012.6 16.9
2017-May-24 19:00S 36°24' E 063°00'0 0.5 1012.8 16.9
2017-May-24 18:00S 36°24' E 062°59'1 0.8 1013.6 16.9
2017-May-24 17:00S 36°23' E 062°59'0 0.5 1013.5 16.9
2017-May-24 16:00S 36°23' E 062°59'1 0.8 1013.8 16.9
2017-May-24 15:00S 36°23' E 062°59'0 0.0 1014.0 16.8
2017-May-24 14:00S 36°23' E 062°59'0 0.0 1013.6 16.8
2017-May-24 12:00S 36°23' E 062°59'0 0.5 1013.3 16.8
2017-May-24 11:00S 36°23' E 062°59'1 0.2 1014.4 16.8
2017-May-24 06:00S 36°22' E 062°59'1 0.6 1018.7 16.8
2017-May-24 05:00S 36°21' E 062°59'0 0.0 1018.7 16.8
2017-May-24 04:00S 36°21' E 062°59'0 0.0 1018.9 16.8
2017-May-24 03:00S 36°21' E 062°59'1 1.0 1019.2 16.8
2017-May-24 02:00S 36°21' E 063°01'1 0.2 1018.7 16.8
2017-May-23 22:00S 36°20' E 063°01'0 0.0 1019.0 16.8
2017-May-23 21:00S 36°20' E 063°01'2 0.7 1018.9 16.8
2017-May-23 18:00S 36°21' E 063°04'1 1.1 1018.0 16.8
2017-May-23 17:00S 36°22' E 063°05'0 0.5 1017.5 16.8
2017-May-23 16:00S 36°22' E 063°05'2 1.9 1016.7 16.8
2017-May-23 15:00S 36°23' E 063°06'0 0.0 1016.2 16.8
2017-May-23 14:00S 36°23' E 063°06'0 0.5 1015.2 16.9
2017-May-23 13:00S 36°23' E 063°05'2 1.9 1014.0 16.9
2017-May-23 12:00S 36°25' E 063°05'0 0.0 1013.4 16.9
2017-May-23 10:00S 36°25' E 063°05'2 0.5 1011.4 16.9
2017-May-23 06:00S 36°26' E 063°02'1 0.8 1012.7 16.9
2017-May-23 05:00S 36°25' E 063°02'0 0.0 1013.0 16.8
2017-May-23 04:00S 36°25' E 063°02'0 0.0 1013.1 16.8
2017-May-23 03:00S 36°25' E 063°02'0 0.5 1013.3 16.8
2017-May-23 02:00S 36°25' E 063°02'0 0.5 1013.0 16.7
2017-May-23 01:00S 36°25' E 063°02'0 0.5 1012.9 16.7
2017-May-23 00:00S 36°25' E 063°02'0 0.0 1013.1 16.7
2017-May-22 22:00S 36°25' E 063°02'1 0.6 1014.1 16.6
2017-May-22 21:00S 36°26' E 063°02'0 0.0 1014.5 16.7
2017-May-22 20:00S 36°26' E 063°02'1 0.8 1015.1 16.7
2017-May-22 19:00S 36°25' E 063°03'0 0.0 1015.4 16.7
2017-May-22 18:00S 36°25' E 063°03'0 0.0 1015.8 16.7
2017-May-22 16:00S 36°25' E 063°03'1 0.3 1015.9 16.7
2017-May-22 13:00S 36°25' E 063°04'0 0.0 1015.8 16.8
2017-May-22 12:00S 36°25' E 063°04'0 0.0 1015.7 16.9
2017-May-22 11:00S 36°25' E 063°04'0 0.5 1015.5 16.9
2017-May-22 10:00S 36°25' E 063°03'4 0.9 1015.8 16.9
2017-May-22 05:00S 36°23' E 063°08'2 2.3 1016.2 16.9
2017-May-22 04:00S 36°24' E 063°10'1 0.8 1015.5 16.9
2017-May-22 03:00S 36°23' E 063°10'2 1.5 1015.3 16.9
2017-May-22 02:00S 36°25' E 063°11'1 1.0 1015.1 16.9
2017-May-22 01:00S 36°25' E 063°12'1 0.6 1014.8 16.9
2017-May-21 23:00S 36°26' E 063°12'1 0.8 1014.1 16.9
2017-May-21 22:00S 36°26' E 063°13'0 0.0 1013.8 16.9
2017-May-21 21:00S 36°26' E 063°13'1 0.3 1014.0 16.9
2017-May-21 19:00S 36°27' E 063°13'0 0.0 1013.6 16.9
2017-May-21 18:00S 36°27' E 063°13'0 0.0 1013.7 16.8
2017-May-21 17:00S 36°27' E 063°13'1 0.6 1013.7 16.8
2017-May-21 16:00S 36°28' E 063°13'1 0.8 1013.5 16.8
2017-May-21 15:00S 36°27' E 063°13'0 0.0 1013.1 16.8
2017-May-21 14:00S 36°27' E 063°13'1 0.8 1012.6 16.7
2017-May-21 13:00S 36°28' E 063°14'2 1.6 1012.5 16.7
2017-May-21 12:00S 36°28' E 063°12'4 3.8 1011.6 16.7
2017-May-21 11:00S 36°30' E 063°16'3 3.4 1010.6 16.7
2017-May-21 10:00S 36°28' E 063°13'4 1.0 1010.6 16.7
2017-May-21 06:00S 36°30' E 063°17'0 0.0 1011.5 16.7
2017-May-21 05:00S 36°30' E 063°17'1 0.6 1011.3 16.6
2017-May-21 04:00S 36°31' E 063°17'1 1.1 1011.1 16.6
2017-May-21 03:00S 36°31' E 063°16'1 0.8 1010.8 16.5
2017-May-21 02:00S 36°32' E 063°16'1 1.0 1010.6 16.5
2017-May-21 01:00S 36°32' E 063°15'1 0.4 1010.7 16.5
2017-May-20 23:00S 36°32' E 063°16'0 0.0 1011.6 16.5
2017-May-20 22:00S 36°32' E 063°16'0 0.2 1012.0 16.5
2017-May-20 20:00S 36°32' E 063°15'1 0.4 1013.0 16.4
2017-May-20 18:00S 36°33' E 063°16'1 0.8 1014.1 16.5
2017-May-20 17:00S 36°34' E 063°16'1 0.8 1014.1 16.5
2017-May-20 16:00S 36°33' E 063°17'1 1.3 1014.1 16.6
2017-May-20 15:00S 36°34' E 063°17'0 0.0 1014.4 16.7
2017-May-20 14:00S 36°34' E 063°17'2 1.6 1014.4 16.6
2017-May-20 13:00S 36°35' E 063°19'0 0.0 1014.5 16.6
2017-May-20 12:00S 36°35' E 063°19'2 1.5 1014.5 16.6
2017-May-20 11:00S 36°36' E 063°20'0 0.0 1014.0 16.7
2017-May-20 10:00S 36°36' E 063°20'3 0.6 1014.1 16.7
2017-May-20 05:00S 36°38' E 063°23'2 1.9 1013.5 16.6
2017-May-20 04:00S 36°40' E 063°25'0 0.0 1013.4 16.5
2017-May-20 03:00S 36°40' E 063°25'1 0.8 1013.1 16.5
2017-May-20 02:00S 36°40' E 063°25'0 0.0 1013.2 16.5
2017-May-20 01:00S 36°40' E 063°25'0 0.0 1013.1 16.5
2017-May-20 00:00S 36°40' E 063°25'0 0.0 1012.8 16.5
2017-May-19 23:00S 36°40' E 063°25'0 0.5 1013.4 16.5
2017-May-19 22:00S 36°40' E 063°26'0 0.2 1013.9 16.5
2017-May-19 19:00S 36°40' E 063°26'0 0.0 1015.6 16.4
2017-May-19 18:00S 36°40' E 063°26'1 1.4 1016.4 16.5
2017-May-19 17:00S 36°40' E 063°28'0 0.2 1016.8 16.5
2017-May-19 15:00S 36°40' E 063°29'0 0.0 1017.7 16.5
2017-May-19 14:00S 36°40' E 063°29'0 0.5 1017.8 16.5
2017-May-19 13:00S 36°40' E 063°29'1 0.8 1018.3 16.4
2017-May-19 12:00S 36°41' E 063°30'1 0.8 1019.0 16.5
2017-May-19 11:00S 36°41' E 063°29'0 0.0 1019.1 16.5
2017-May-19 10:00S 36°41' E 063°29'0 0.0 1019.3 16.6
2017-May-19 09:00S 36°41' E 063°29'0 0.0 1020.1 16.6
2017-May-19 06:00S 36°41' E 063°29'0 0.0 1022.7 16.5
2017-May-19 05:00S 36°41' E 063°29'1 1.0 1023.1 16.4
2017-May-19 04:00S 36°41' E 063°31'0 0.0 1022.9 16.4
2017-May-19 03:00S 36°41' E 063°31'1 1.1 1023.1 16.4
2017-May-19 02:00S 36°41' E 063°32'0 0.0 1023.2 16.4
2017-May-19 00:00S 36°41' E 063°32'1 0.6 1023.2 16.3
2017-May-18 23:00S 36°41' E 063°32'1 0.8 1023.7 16.4
2017-May-18 22:00S 36°41' E 063°32'1 1.4 1024.2 16.4
2017-May-18 21:00S 36°41' E 063°34'1 0.4 1024.6 16.4
2017-May-18 18:00S 36°41' E 063°35'0 0.0 1025.6 16.3
2017-May-18 17:00S 36°41' E 063°35'0 0.5 1025.8 16.3
2017-May-18 16:00S 36°41' E 063°36'1 1.1 1025.8 16.3
2017-May-18 15:00S 36°42' E 063°37'1 0.6 1025.7 16.3
2017-May-18 14:00S 36°41' E 063°37'3 1.3 1025.6 16.3
2017-May-18 12:00S 36°44' E 063°38'0 0.0 1025.3 16.4
2017-May-18 11:00S 36°44' E 063°38'0 0.0 1025.0 16.4
2017-May-18 10:00S 36°44' E 063°38'1 0.8 1025.0 16.4
2017-May-18 09:00S 36°44' E 063°38'0 0.0 1025.1 16.4
2017-May-18 05:00S 36°44' E 063°38'0 0.0 1025.5 16.4
2017-May-18 04:00S 36°44' E 063°38'1 0.8 1025.2 16.4
2017-May-18 03:00S 36°45' E 063°38'0 0.5 1024.8 16.4
2017-May-18 02:00S 36°45' E 063°39'1 1.3 1024.7 16.4
2017-May-18 01:00S 36°46' E 063°40'1 0.3 1024.3 16.4
2017-May-17 23:00S 36°46' E 063°40'1 0.8 1024.5 16.4
2017-May-17 22:00S 36°46' E 063°40'1 1.3 1024.5 16.4
2017-May-17 21:00S 36°47' E 063°41'0 0.0 1024.5 16.4
2017-May-17 19:00S 36°47' E 063°41'1 1.3 1024.7 16.4
2017-May-17 18:00S 36°49' E 063°41'1 0.8 1024.7 16.4
2017-May-17 17:00S 36°49' E 063°42'1 1.1 1024.4 16.4
2017-May-17 16:00S 36°50' E 063°43'1 0.6 1024.0 16.4
2017-May-17 15:00S 36°50' E 063°43'1 1.3 1023.8 16.4
2017-May-17 14:00S 36°52' E 063°44'0 0.0 1023.7 16.4
2017-May-17 13:00S 36°52' E 063°44'1 1.2 1023.3 16.4
2017-May-17 12:00S 36°53' E 063°44'0 0.0 1023.1 16.5
2017-May-17 11:00S 36°53' E 063°44'3 2.6 1022.9 16.5
2017-May-17 10:00S 36°55' E 063°45'0 0.0 1022.9 16.5
2017-May-17 06:00S 36°55' E 063°45'1 1.0 1024.2 16.6
2017-May-17 05:00S 36°55' E 063°46'1 0.6 1024.1 16.5
2017-May-17 04:00S 36°56' E 063°46'1 0.6 1024.1 16.5
2017-May-17 03:00S 36°56' E 063°46'0 0.0 1023.5 16.5
2017-May-17 02:00S 36°56' E 063°46'1 1.3 1023.1 16.5
2017-May-17 01:00S 36°58' E 063°47'2 0.9 1022.9 16.5
2017-May-16 23:00S 36°59' E 063°46'1 0.8 1023.2 16.5
2017-May-16 22:00S 37°00' E 063°47'0 0.0 1023.3 16.5
2017-May-16 21:00S 37°00' E 063°47'   1023.5 16.6

Dump ship's entire track history